WUK7RS EGGW-LZKZ
Flight info
| Callsign | WUK7RS |
|---|---|
| Flight time | 2h 15m |
| Altitude | 37000 |
| Route | MATCH Q295 BRAIN P44 DAGGA M85 ITVIP L10 DVR UL9 KONAN DCT KOK DCT SPI DCT GUBAX DCT KOMIB DCT OKG DCT TAKOS |
| Aircraft | A320/M-SDE1E2E3FGIJ1J4RWXY/LB1 |
Departure
| Time | 2026-04-22 17:52 |
|---|---|
| Airport | London Luton Airport (EGGW) |
Arrival
| Time | 2026-04-22 20:07 |
|---|---|
| Airport | Košice International Airport (LZKZ) |
| Time | Latitude | Longitude | Altitude | Speed | Heading |
|---|---|---|---|---|---|
| 2026-04-22 17:45 | 51.87951 | -0.37986 | 537 ft | 0 kts | 159° |
| 2026-04-22 17:46 | 51.87935 | -0.37980 | 537 ft | 4 kts | 174° |
| 2026-04-22 17:46 | 51.87907 | -0.38000 | 537 ft | 5 kts | 205° |
| 2026-04-22 17:46 | 51.87864 | -0.37997 | 537 ft | 7 kts | 163° |
| 2026-04-22 17:47 | 51.87814 | -0.37944 | 537 ft | 10 kts | 132° |
| 2026-04-22 17:47 | 51.87776 | -0.37837 | 536 ft | 12 kts | 114° |
| 2026-04-22 17:47 | 51.87738 | -0.37698 | 536 ft | 15 kts | 115° |
| 2026-04-22 17:47 | 51.87692 | -0.37538 | 536 ft | 14 kts | 118° |
| 2026-04-22 17:48 | 51.87653 | -0.37477 | 536 ft | 8 kts | 148° |
| 2026-04-22 17:48 | 51.87568 | -0.37456 | 536 ft | 11 kts | 188° |
| 2026-04-22 17:48 | 51.87499 | -0.37533 | 536 ft | 13 kts | 242° |
| 2026-04-22 17:48 | 51.87480 | -0.37684 | 536 ft | 14 kts | 256° |
| 2026-04-22 17:49 | 51.87453 | -0.37851 | 537 ft | 16 kts | 254° |
| 2026-04-22 17:49 | 51.87416 | -0.38010 | 537 ft | 15 kts | 231° |
| 2026-04-22 17:49 | 51.87325 | -0.38097 | 538 ft | 16 kts | 202° |
| 2026-04-22 17:49 | 51.87246 | -0.38132 | 538 ft | 7 kts | 223° |
| 2026-04-22 17:50 | 51.87231 | -0.38193 | 538 ft | 9 kts | 253° |
| 2026-04-22 17:50 | 51.87237 | -0.38305 | 537 ft | 7 kts | 274° |
| 2026-04-22 17:50 | 51.87219 | -0.38322 | 537 ft | 3 kts | 152° |
| 2026-04-22 17:50 | 51.87216 | -0.38281 | 537 ft | 0 kts | 73° |
| 2026-04-22 17:51 | 51.87216 | -0.38280 | 537 ft | 0 kts | 73° |
| 2026-04-22 17:51 | 51.87251 | -0.38073 | 538 ft | 53 kts | 75° |
| 2026-04-22 17:51 | 51.87411 | -0.37149 | 535 ft | 115 kts | 75° |
| 2026-04-22 17:51 | 51.87669 | -0.35641 | 572 ft | 159 kts | 75° |
| 2026-04-22 17:52 | 51.87971 | -0.33965 | 1363 ft | 151 kts | 76° |
| 2026-04-22 17:52 | 51.88254 | -0.32339 | 2036 ft | 157 kts | 77° |
| 2026-04-22 17:52 | 51.88556 | -0.30477 | 2272 ft | 185 kts | 77° |
| 2026-04-22 17:52 | 51.88898 | -0.28280 | 2581 ft | 215 kts | 76° |
| 2026-04-22 17:53 | 51.89313 | -0.25830 | 3156 ft | 234 kts | 76° |
| 2026-04-22 17:53 | 51.89485 | -0.23214 | 4001 ft | 238 kts | 101° |
| 2026-04-22 17:53 | 51.88727 | -0.20837 | 4884 ft | 246 kts | 134° |
| 2026-04-22 17:53 | 51.87267 | -0.19326 | 5258 ft | 252 kts | 152° |
| 2026-04-22 17:54 | 51.85694 | -0.18071 | 5459 ft | 254 kts | 144° |
| 2026-04-22 17:54 | 51.84473 | -0.16047 | 6372 ft | 254 kts | 121° |
| 2026-04-22 17:54 | 51.83895 | -0.13347 | 7242 ft | 260 kts | 97° |
| 2026-04-22 17:54 | 51.83823 | -0.10402 | 8129 ft | 263 kts | 94° |
| 2026-04-22 17:55 | 51.83796 | -0.08437 | 8768 ft | 265 kts | 94° |
| 2026-04-22 17:55 | 51.83744 | -0.04402 | 9874 ft | 272 kts | 93° |
| 2026-04-22 17:55 | 51.83703 | -0.01316 | 10623 ft | 278 kts | 94° |
| 2026-04-22 17:55 | 51.83656 | 0.01929 | 10863 ft | 300 kts | 93° |
| 2026-04-22 17:56 | 51.83605 | 0.05397 | 11284 ft | 315 kts | 93° |
| 2026-04-22 17:56 | 51.83551 | 0.08972 | 11948 ft | 320 kts | 93° |
| 2026-04-22 17:56 | 51.83494 | 0.12590 | 12661 ft | 324 kts | 93° |
| 2026-04-22 17:56 | 51.83434 | 0.16244 | 13379 ft | 327 kts | 94° |
| 2026-04-22 17:57 | 51.83392 | 0.18690 | 13847 ft | 330 kts | 94° |
| 2026-04-22 17:57 | 51.83325 | 0.22416 | 14512 ft | 333 kts | 94° |
| 2026-04-22 17:57 | 51.83258 | 0.26179 | 15137 ft | 336 kts | 94° |
| 2026-04-22 17:57 | 51.83191 | 0.29888 | 16239 ft | 320 kts | 94° |
| 2026-04-22 17:58 | 51.83133 | 0.33368 | 17565 ft | 300 kts | 94° |
| 2026-04-22 17:58 | 51.83079 | 0.36614 | 18874 ft | 278 kts | 94° |
| 2026-04-22 17:58 | 51.83025 | 0.39679 | 19761 ft | 272 kts | 92° |
| 2026-04-22 17:58 | 51.82966 | 0.42844 | 19915 ft | 292 kts | 91° |
| 2026-04-22 17:59 | 51.82900 | 0.46228 | 20033 ft | 311 kts | 91° |
| 2026-04-22 17:59 | 51.82830 | 0.49820 | 20169 ft | 328 kts | 91° |
| 2026-04-22 17:59 | 51.82757 | 0.53599 | 20290 ft | 345 kts | 90° |
| 2026-04-22 17:59 | 51.82677 | 0.57565 | 20442 ft | 360 kts | 91° |
| 2026-04-22 18:00 | 51.82618 | 0.60313 | 20664 ft | 366 kts | 90° |
| 2026-04-22 18:00 | 51.82501 | 0.65796 | 21260 ft | 372 kts | 90° |
| 2026-04-22 18:00 | 51.82313 | 0.69992 | 21662 ft | 379 kts | 98° |
| 2026-04-22 18:00 | 51.81509 | 0.74083 | 22089 ft | 388 kts | 113° |
| 2026-04-22 18:01 | 51.80023 | 0.77766 | 22496 ft | 398 kts | 128° |
| 2026-04-22 18:01 | 51.77933 | 0.80768 | 22863 ft | 408 kts | 142° |
| 2026-04-22 18:01 | 51.75655 | 0.83526 | 23257 ft | 411 kts | 135° |
| 2026-04-22 18:01 | 51.73636 | 0.86808 | 23669 ft | 413 kts | 128° |
| 2026-04-22 18:02 | 51.71810 | 0.90412 | 24060 ft | 417 kts | 124° |
| 2026-04-22 18:02 | 51.70051 | 0.94140 | 24408 ft | 421 kts | 124° |
| 2026-04-22 18:02 | 51.68206 | 0.97836 | 24813 ft | 424 kts | 127° |
| 2026-04-22 18:02 | 51.66302 | 1.01454 | 25323 ft | 424 kts | 128° |
| 2026-04-22 18:03 | 51.64361 | 1.05044 | 25753 ft | 425 kts | 129° |
| 2026-04-22 18:03 | 51.62406 | 1.08634 | 26095 ft | 429 kts | 129° |
| 2026-04-22 18:03 | 51.60436 | 1.12268 | 26464 ft | 432 kts | 129° |
| 2026-04-22 18:03 | 51.58462 | 1.15944 | 26832 ft | 435 kts | 128° |
| 2026-04-22 18:04 | 51.56483 | 1.19650 | 27184 ft | 439 kts | 128° |
| 2026-04-22 18:04 | 51.54486 | 1.23404 | 27456 ft | 444 kts | 128° |
| 2026-04-22 18:04 | 51.52472 | 1.27191 | 27784 ft | 448 kts | 128° |
| 2026-04-22 18:04 | 51.50440 | 1.31008 | 28113 ft | 451 kts | 128° |
| 2026-04-22 18:05 | 51.48393 | 1.34849 | 28452 ft | 455 kts | 128° |
| 2026-04-22 18:05 | 51.46327 | 1.38720 | 28775 ft | 458 kts | 128° |
| 2026-04-22 18:05 | 51.44243 | 1.42612 | 29107 ft | 462 kts | 128° |
| 2026-04-22 18:05 | 51.42143 | 1.46525 | 29503 ft | 464 kts | 128° |
| 2026-04-22 18:06 | 51.40034 | 1.50446 | 29879 ft | 466 kts | 128° |
| 2026-04-22 18:06 | 51.37907 | 1.54390 | 30210 ft | 470 kts | 128° |
| 2026-04-22 18:07 | 51.31385 | 1.66439 | 31081 ft | 480 kts | 128° |
| 2026-04-22 18:07 | 51.29180 | 1.70501 | 31328 ft | 484 kts | 128° |
| 2026-04-22 18:07 | 51.26978 | 1.74557 | 31673 ft | 485 kts | 128° |
| 2026-04-22 18:07 | 51.24709 | 1.78729 | 32117 ft | 484 kts | 129° |
| 2026-04-22 18:08 | 51.22272 | 1.83200 | 32576 ft | 483 kts | 129° |
| 2026-04-22 18:08 | 51.20356 | 1.86705 | 32959 ft | 483 kts | 129° |
| 2026-04-22 18:08 | 51.18367 | 1.90983 | 33400 ft | 478 kts | 115° |
| 2026-04-22 18:08 | 51.17101 | 1.95802 | 33926 ft | 467 kts | 100° |
| 2026-04-22 18:09 | 51.16426 | 2.00817 | 34377 ft | 463 kts | 96° |
| 2026-04-22 18:09 | 51.15813 | 2.05848 | 34751 ft | 461 kts | 96° |
| 2026-04-22 18:09 | 51.15212 | 2.10858 | 35120 ft | 460 kts | 96° |
| 2026-04-22 18:09 | 51.14615 | 2.15863 | 35489 ft | 459 kts | 96° |
| 2026-04-22 18:10 | 51.14014 | 2.20851 | 35848 ft | 458 kts | 97° |
| 2026-04-22 18:10 | 51.13417 | 2.25755 | 36201 ft | 457 kts | 97° |
| 2026-04-22 18:10 | 51.12810 | 2.30707 | 36547 ft | 456 kts | 97° |
| 2026-04-22 18:10 | 51.12197 | 2.35658 | 36879 ft | 455 kts | 98° |
| 2026-04-22 18:11 | 51.11587 | 2.40582 | 37234 ft | 454 kts | 98° |
| 2026-04-22 18:11 | 51.10364 | 2.50405 | 37318 ft | 452 kts | 98° |
| 2026-04-22 18:12 | 51.09132 | 2.60199 | 37319 ft | 451 kts | 98° |
| 2026-04-22 18:12 | 51.08103 | 2.68389 | 37314 ft | 451 kts | 98° |
| 2026-04-22 18:13 | 51.06663 | 2.79753 | 37317 ft | 451 kts | 98° |
| 2026-04-22 18:13 | 51.05398 | 2.89522 | 37352 ft | 451 kts | 98° |
| 2026-04-22 18:14 | 51.04137 | 2.99272 | 37350 ft | 450 kts | 98° |
| 2026-04-22 18:14 | 51.02879 | 3.09009 | 37346 ft | 450 kts | 98° |
| 2026-04-22 18:15 | 51.01610 | 3.18734 | 37342 ft | 449 kts | 98° |
| 2026-04-22 18:15 | 51.00333 | 3.28448 | 37339 ft | 449 kts | 99° |
| 2026-04-22 18:16 | 50.99044 | 3.38150 | 37352 ft | 449 kts | 99° |
| 2026-04-22 18:16 | 50.97746 | 3.47848 | 37340 ft | 449 kts | 99° |
| 2026-04-22 18:17 | 50.96445 | 3.57532 | 37337 ft | 449 kts | 99° |
| 2026-04-22 18:17 | 50.95145 | 3.67151 | 37336 ft | 449 kts | 99° |
| 2026-04-22 18:18 | 50.93827 | 3.76829 | 37355 ft | 449 kts | 99° |
| 2026-04-22 18:18 | 50.92501 | 3.86499 | 37349 ft | 449 kts | 99° |
| 2026-04-22 18:19 | 50.91168 | 3.96151 | 37349 ft | 448 kts | 99° |
| 2026-04-22 18:19 | 50.89829 | 4.05791 | 37346 ft | 448 kts | 99° |
| 2026-04-22 18:20 | 50.88482 | 4.15428 | 37349 ft | 448 kts | 99° |
| 2026-04-22 18:20 | 50.87128 | 4.25060 | 37348 ft | 448 kts | 99° |
| 2026-04-22 18:21 | 50.85758 | 4.34698 | 37348 ft | 448 kts | 99° |
| 2026-04-22 18:21 | 50.84386 | 4.44295 | 37349 ft | 448 kts | 99° |
| 2026-04-22 18:22 | 50.83010 | 4.53911 | 37349 ft | 448 kts | 100° |
| 2026-04-22 18:22 | 50.81624 | 4.63522 | 37348 ft | 448 kts | 100° |
| 2026-04-22 18:23 | 50.80227 | 4.73121 | 37368 ft | 448 kts | 100° |
| 2026-04-22 18:23 | 50.78825 | 4.82716 | 37360 ft | 447 kts | 100° |
| 2026-04-22 18:24 | 50.76712 | 4.97069 | 37351 ft | 447 kts | 100° |
| 2026-04-22 18:25 | 50.74816 | 5.09805 | 37347 ft | 448 kts | 100° |
| 2026-04-22 18:25 | 50.73143 | 5.20986 | 37361 ft | 448 kts | 100° |
| 2026-04-22 18:26 | 50.70979 | 5.35322 | 37353 ft | 447 kts | 100° |
| 2026-04-22 18:26 | 50.69530 | 5.44859 | 37350 ft | 447 kts | 101° |
| 2026-04-22 18:27 | 50.68071 | 5.54400 | 37350 ft | 447 kts | 101° |
| 2026-04-22 18:27 | 50.66606 | 5.63923 | 37366 ft | 447 kts | 101° |
| 2026-04-22 18:28 | 50.65129 | 5.73440 | 37360 ft | 447 kts | 101° |
| 2026-04-22 18:28 | 50.63842 | 5.82977 | 37350 ft | 443 kts | 92° |
| 2026-04-22 18:29 | 50.63274 | 5.92571 | 37349 ft | 443 kts | 92° |
| 2026-04-22 18:29 | 50.62695 | 6.02222 | 37342 ft | 443 kts | 92° |
| 2026-04-22 18:30 | 50.61881 | 6.15814 | 37353 ft | 442 kts | 92° |
| 2026-04-22 18:31 | 50.60638 | 6.35931 | 37340 ft | 441 kts | 92° |
| 2026-04-22 18:32 | 50.60034 | 6.45540 | 37337 ft | 441 kts | 93° |
| 2026-04-22 18:32 | 50.59417 | 6.55131 | 37354 ft | 441 kts | 93° |
| 2026-04-22 18:33 | 50.58789 | 6.64716 | 37351 ft | 440 kts | 93° |
| 2026-04-22 18:33 | 50.58161 | 6.74271 | 37352 ft | 439 kts | 93° |
| 2026-04-22 18:34 | 50.57525 | 6.83819 | 37342 ft | 438 kts | 93° |
| 2026-04-22 18:34 | 50.56884 | 6.93349 | 37351 ft | 438 kts | 93° |
| 2026-04-22 18:35 | 50.56237 | 7.02862 | 37364 ft | 437 kts | 93° |
| 2026-04-22 18:35 | 50.55579 | 7.12367 | 37358 ft | 437 kts | 93° |
| 2026-04-22 18:36 | 50.54920 | 7.21850 | 37355 ft | 436 kts | 93° |
| 2026-04-22 18:36 | 50.54250 | 7.31323 | 37354 ft | 436 kts | 93° |
| 2026-04-22 18:37 | 50.53574 | 7.40781 | 37349 ft | 436 kts | 93° |
| 2026-04-22 18:37 | 50.53008 | 7.48645 | 37373 ft | 436 kts | 93° |
| 2026-04-22 18:38 | 50.52196 | 7.59694 | 37367 ft | 435 kts | 94° |
| 2026-04-22 18:38 | 50.51496 | 7.69132 | 37362 ft | 435 kts | 94° |
| 2026-04-22 18:39 | 50.50556 | 7.81685 | 37369 ft | 435 kts | 94° |
| 2026-04-22 18:39 | 50.49808 | 7.91625 | 37377 ft | 434 kts | 94° |
| 2026-04-22 18:40 | 50.48769 | 8.05128 | 37372 ft | 434 kts | 94° |
| 2026-04-22 18:41 | 50.46928 | 8.28513 | 37368 ft | 433 kts | 94° |
| 2026-04-22 18:44 | 50.42826 | 8.78473 | 37350 ft | 432 kts | 94° |
| 2026-04-22 18:46 | 50.40143 | 9.09979 | 37348 ft | 432 kts | 95° |
| 2026-04-22 18:46 | 50.39057 | 9.22365 | 37347 ft | 432 kts | 95° |
| 2026-04-22 18:47 | 50.38239 | 9.31686 | 37360 ft | 431 kts | 95° |
| 2026-04-22 18:47 | 50.37406 | 9.40987 | 37354 ft | 431 kts | 95° |
| 2026-04-22 18:48 | 50.36565 | 9.50276 | 37354 ft | 431 kts | 95° |
| 2026-04-22 18:48 | 50.35725 | 9.59555 | 37367 ft | 430 kts | 95° |
| 2026-04-22 18:49 | 50.34876 | 9.68841 | 37364 ft | 430 kts | 95° |
| 2026-04-22 18:49 | 50.34020 | 9.78109 | 37365 ft | 430 kts | 95° |
| 2026-04-22 18:50 | 50.33155 | 9.87374 | 37368 ft | 429 kts | 95° |
| 2026-04-22 18:50 | 50.32287 | 9.96546 | 37367 ft | 429 kts | 95° |
| 2026-04-22 18:51 | 50.31409 | 10.05769 | 37372 ft | 428 kts | 95° |
| 2026-04-22 18:51 | 50.30521 | 10.14984 | 37371 ft | 428 kts | 95° |
| 2026-04-22 18:52 | 50.29631 | 10.24189 | 37380 ft | 428 kts | 95° |
| 2026-04-22 18:52 | 50.28746 | 10.33380 | 37377 ft | 427 kts | 95° |
| 2026-04-22 18:53 | 50.27848 | 10.42554 | 37376 ft | 427 kts | 96° |
| 2026-04-22 18:53 | 50.26932 | 10.51728 | 37374 ft | 427 kts | 96° |
| 2026-04-22 18:54 | 50.26014 | 10.60888 | 37374 ft | 427 kts | 96° |
| 2026-04-22 18:54 | 50.25089 | 10.70048 | 37385 ft | 427 kts | 96° |
| 2026-04-22 18:55 | 50.24166 | 10.79206 | 37376 ft | 427 kts | 96° |
| 2026-04-22 18:55 | 50.23225 | 10.88350 | 37373 ft | 427 kts | 96° |
| 2026-04-22 18:56 | 50.22277 | 10.97500 | 37373 ft | 427 kts | 96° |
| 2026-04-22 18:56 | 50.21333 | 11.06645 | 37371 ft | 426 kts | 96° |
| 2026-04-22 18:57 | 50.20383 | 11.15711 | 37384 ft | 426 kts | 96° |
| 2026-04-22 18:57 | 50.19419 | 11.24826 | 37380 ft | 425 kts | 96° |
| 2026-04-22 18:58 | 50.18450 | 11.33918 | 37371 ft | 425 kts | 96° |
| 2026-04-22 18:58 | 50.17469 | 11.43005 | 37366 ft | 425 kts | 96° |
| 2026-04-22 18:59 | 50.16485 | 11.52089 | 37358 ft | 424 kts | 96° |
| 2026-04-22 18:59 | 50.15498 | 11.61151 | 37366 ft | 424 kts | 97° |
| 2026-04-22 19:00 | 50.14503 | 11.70200 | 37359 ft | 423 kts | 97° |
| 2026-04-22 19:00 | 50.13511 | 11.79230 | 37356 ft | 422 kts | 97° |
| 2026-04-22 19:01 | 50.12507 | 11.88252 | 37357 ft | 422 kts | 97° |
| 2026-04-22 19:01 | 50.11487 | 11.97264 | 37377 ft | 422 kts | 97° |
| 2026-04-22 19:02 | 50.10469 | 12.06265 | 37372 ft | 422 kts | 97° |
| 2026-04-22 19:02 | 50.09449 | 12.15255 | 37367 ft | 421 kts | 97° |
| 2026-04-22 19:03 | 50.08413 | 12.24217 | 37367 ft | 420 kts | 97° |
| 2026-04-22 19:03 | 50.07373 | 12.33175 | 37363 ft | 420 kts | 97° |
| 2026-04-22 19:04 | 50.06307 | 12.42113 | 37370 ft | 420 kts | 98° |
| 2026-04-22 19:04 | 50.05035 | 12.50993 | 37359 ft | 420 kts | 100° |
| 2026-04-22 19:05 | 50.03657 | 12.59751 | 37349 ft | 420 kts | 101° |
| 2026-04-22 19:05 | 50.02275 | 12.68568 | 37341 ft | 419 kts | 100° |
| 2026-04-22 19:06 | 50.00925 | 12.77372 | 37337 ft | 419 kts | 100° |
| 2026-04-22 19:07 | 49.98907 | 12.90566 | 37348 ft | 418 kts | 100° |
| 2026-04-22 19:07 | 49.97552 | 12.99352 | 37342 ft | 418 kts | 100° |
| 2026-04-22 19:08 | 49.96189 | 13.08127 | 37333 ft | 418 kts | 100° |
| 2026-04-22 19:08 | 49.94812 | 13.16891 | 37341 ft | 418 kts | 101° |
| 2026-04-22 19:09 | 49.93425 | 13.25665 | 37337 ft | 418 kts | 101° |
| 2026-04-22 19:09 | 49.92274 | 13.32947 | 37339 ft | 418 kts | 101° |
| 2026-04-22 19:10 | 49.90645 | 13.43193 | 37328 ft | 418 kts | 101° |
| 2026-04-22 19:10 | 49.89254 | 13.51883 | 37329 ft | 418 kts | 101° |
| 2026-04-22 19:11 | 49.87849 | 13.60616 | 37327 ft | 418 kts | 101° |
| 2026-04-22 19:11 | 49.86430 | 13.69353 | 37329 ft | 418 kts | 101° |
| 2026-04-22 19:12 | 49.85012 | 13.78079 | 37344 ft | 418 kts | 101° |
| 2026-04-22 19:12 | 49.83594 | 13.86800 | 37331 ft | 417 kts | 101° |
| 2026-04-22 19:13 | 49.82167 | 13.95508 | 37325 ft | 417 kts | 101° |
| 2026-04-22 19:13 | 49.80736 | 14.04191 | 37328 ft | 416 kts | 101° |
| 2026-04-22 19:14 | 49.79535 | 14.11409 | 37320 ft | 416 kts | 101° |
| 2026-04-22 19:14 | 49.78082 | 14.20139 | 37336 ft | 416 kts | 101° |
| 2026-04-22 19:15 | 49.76638 | 14.28747 | 37321 ft | 416 kts | 101° |
| 2026-04-22 19:15 | 49.75178 | 14.37394 | 37329 ft | 416 kts | 101° |
| 2026-04-22 19:16 | 49.73716 | 14.46052 | 37294 ft | 417 kts | 101° |
| 2026-04-22 19:16 | 49.72240 | 14.54727 | 37290 ft | 418 kts | 101° |
| 2026-04-22 19:17 | 49.70759 | 14.63413 | 37308 ft | 418 kts | 101° |
| 2026-04-22 19:17 | 49.69270 | 14.72098 | 37305 ft | 418 kts | 101° |
| 2026-04-22 19:18 | 49.67759 | 14.80808 | 37297 ft | 418 kts | 102° |
| 2026-04-22 19:18 | 49.66260 | 14.89440 | 37298 ft | 418 kts | 102° |
| 2026-04-22 19:19 | 49.64752 | 14.98107 | 37290 ft | 418 kts | 102° |
| 2026-04-22 19:19 | 49.63241 | 15.06757 | 37301 ft | 418 kts | 102° |
| 2026-04-22 19:20 | 49.61720 | 15.15395 | 37287 ft | 417 kts | 102° |
| 2026-04-22 19:20 | 49.60190 | 15.24028 | 37289 ft | 417 kts | 102° |
| 2026-04-22 19:21 | 49.58654 | 15.32646 | 37282 ft | 417 kts | 102° |
| 2026-04-22 19:21 | 49.57122 | 15.41266 | 37286 ft | 417 kts | 102° |
| 2026-04-22 19:22 | 49.55584 | 15.49876 | 37289 ft | 417 kts | 102° |
| 2026-04-22 19:22 | 49.54031 | 15.58469 | 37286 ft | 416 kts | 102° |
| 2026-04-22 19:23 | 49.52486 | 15.67001 | 37283 ft | 416 kts | 102° |
| 2026-04-22 19:23 | 49.50929 | 15.75575 | 37283 ft | 416 kts | 102° |
| 2026-04-22 19:24 | 49.49355 | 15.84140 | 37268 ft | 416 kts | 102° |
| 2026-04-22 19:24 | 49.47778 | 15.92701 | 37286 ft | 416 kts | 102° |
| 2026-04-22 19:25 | 49.46199 | 16.01243 | 37276 ft | 415 kts | 102° |
| 2026-04-22 19:25 | 49.44623 | 16.09781 | 37271 ft | 415 kts | 102° |
| 2026-04-22 19:26 | 49.43038 | 16.18309 | 37260 ft | 415 kts | 102° |
| 2026-04-22 19:26 | 49.41443 | 16.26825 | 37259 ft | 415 kts | 102° |
| 2026-04-22 19:27 | 49.39839 | 16.35339 | 37263 ft | 415 kts | 102° |
| 2026-04-22 19:27 | 49.38233 | 16.43842 | 37251 ft | 415 kts | 102° |
| 2026-04-22 19:28 | 49.36621 | 16.52341 | 37247 ft | 415 kts | 102° |
| 2026-04-22 19:28 | 49.35002 | 16.60828 | 37242 ft | 415 kts | 102° |
| 2026-04-22 19:29 | 49.33377 | 16.69310 | 37260 ft | 414 kts | 102° |
| 2026-04-22 19:29 | 49.31764 | 16.77730 | 37248 ft | 414 kts | 102° |
| 2026-04-22 19:30 | 49.30403 | 16.84818 | 37246 ft | 414 kts | 102° |
| 2026-04-22 19:30 | 49.28486 | 16.94690 | 37238 ft | 413 kts | 102° |
| 2026-04-22 19:31 | 49.26838 | 17.03121 | 37243 ft | 413 kts | 102° |
| 2026-04-22 19:31 | 49.25205 | 17.11491 | 37254 ft | 413 kts | 102° |
| 2026-04-22 19:32 | 49.23556 | 17.19919 | 37245 ft | 413 kts | 102° |
| 2026-04-22 19:32 | 49.21892 | 17.28335 | 37223 ft | 413 kts | 103° |
| 2026-04-22 19:33 | 49.20217 | 17.36747 | 37210 ft | 413 kts | 103° |
| 2026-04-22 19:33 | 49.18544 | 17.45150 | 37207 ft | 413 kts | 103° |
| 2026-04-22 19:34 | 49.16869 | 17.53554 | 37205 ft | 413 kts | 103° |
| 2026-04-22 19:34 | 49.15184 | 17.61948 | 37207 ft | 413 kts | 103° |
| 2026-04-22 19:35 | 49.13489 | 17.70339 | 37208 ft | 413 kts | 103° |
| 2026-04-22 19:35 | 49.11791 | 17.78717 | 37211 ft | 413 kts | 103° |
| 2026-04-22 19:36 | 49.10085 | 17.87094 | 37220 ft | 413 kts | 103° |
| 2026-04-22 19:36 | 49.08382 | 17.95465 | 37231 ft | 413 kts | 103° |
| 2026-04-22 19:37 | 49.06670 | 18.03830 | 37224 ft | 413 kts | 103° |
| 2026-04-22 19:37 | 49.04937 | 18.12191 | 37073 ft | 414 kts | 103° |
| 2026-04-22 19:37 | 49.04070 | 18.16362 | 36816 ft | 412 kts | 103° |
| 2026-04-22 19:38 | 49.03208 | 18.20518 | 36556 ft | 410 kts | 103° |
| 2026-04-22 19:38 | 49.02351 | 18.24641 | 36298 ft | 408 kts | 103° |
| 2026-04-22 19:38 | 49.01457 | 18.28936 | 36038 ft | 405 kts | 103° |
| 2026-04-22 19:38 | 49.00650 | 18.32823 | 35801 ft | 402 kts | 103° |
| 2026-04-22 19:39 | 48.99808 | 18.36860 | 35553 ft | 396 kts | 103° |
| 2026-04-22 19:39 | 48.98977 | 18.40837 | 35132 ft | 393 kts | 103° |
| 2026-04-22 19:39 | 48.98152 | 18.44785 | 34705 ft | 390 kts | 103° |
| 2026-04-22 19:39 | 48.97331 | 18.48698 | 34277 ft | 386 kts | 102° |
| 2026-04-22 19:40 | 48.96527 | 18.52521 | 33808 ft | 383 kts | 103° |
| 2026-04-22 19:40 | 48.95717 | 18.56357 | 33389 ft | 378 kts | 102° |
| 2026-04-22 19:40 | 48.94943 | 18.60142 | 32898 ft | 373 kts | 101° |
| 2026-04-22 19:40 | 48.94252 | 18.63918 | 32478 ft | 367 kts | 99° |
| 2026-04-22 19:41 | 48.93618 | 18.67652 | 32076 ft | 362 kts | 99° |
| 2026-04-22 19:41 | 48.93011 | 18.71342 | 31678 ft | 357 kts | 99° |
| 2026-04-22 19:41 | 48.92411 | 18.74972 | 31299 ft | 352 kts | 99° |
| 2026-04-22 19:41 | 48.91810 | 18.78560 | 30893 ft | 349 kts | 99° |
| 2026-04-22 19:42 | 48.91203 | 18.82113 | 30528 ft | 345 kts | 99° |
| 2026-04-22 19:42 | 48.90597 | 18.85612 | 30149 ft | 341 kts | 99° |
| 2026-04-22 19:42 | 48.89995 | 18.89068 | 29768 ft | 336 kts | 99° |
| 2026-04-22 19:42 | 48.89398 | 18.92472 | 29427 ft | 331 kts | 99° |
| 2026-04-22 19:43 | 48.88225 | 18.99136 | 28761 ft | 322 kts | 99° |
| 2026-04-22 19:43 | 48.87650 | 19.02394 | 28438 ft | 317 kts | 99° |
| 2026-04-22 19:43 | 48.87083 | 19.05603 | 28119 ft | 312 kts | 99° |
| 2026-04-22 19:44 | 48.86524 | 19.08759 | 27788 ft | 307 kts | 99° |
| 2026-04-22 19:44 | 48.85974 | 19.11870 | 27479 ft | 304 kts | 99° |
| 2026-04-22 19:44 | 48.85427 | 19.14963 | 27164 ft | 303 kts | 99° |
| 2026-04-22 19:44 | 48.84882 | 19.18053 | 26856 ft | 303 kts | 99° |
| 2026-04-22 19:45 | 48.84338 | 19.21134 | 26529 ft | 302 kts | 99° |
| 2026-04-22 19:45 | 48.83793 | 19.24206 | 26210 ft | 301 kts | 99° |
| 2026-04-22 19:45 | 48.83249 | 19.27264 | 25881 ft | 300 kts | 99° |
| 2026-04-22 19:45 | 48.82710 | 19.30304 | 25548 ft | 297 kts | 99° |
| 2026-04-22 19:46 | 48.82179 | 19.33295 | 25226 ft | 298 kts | 99° |
| 2026-04-22 19:46 | 48.81635 | 19.36332 | 24884 ft | 297 kts | 99° |
| 2026-04-22 19:46 | 48.81090 | 19.39352 | 24540 ft | 296 kts | 99° |
| 2026-04-22 19:46 | 48.80546 | 19.42363 | 24192 ft | 295 kts | 99° |
| 2026-04-22 19:47 | 48.80003 | 19.45365 | 23846 ft | 295 kts | 99° |
| 2026-04-22 19:47 | 48.79462 | 19.48359 | 23459 ft | 294 kts | 99° |
| 2026-04-22 19:47 | 48.79097 | 19.50377 | 23206 ft | 293 kts | 99° |
| 2026-04-22 19:47 | 48.78385 | 19.54327 | 22757 ft | 293 kts | 99° |
| 2026-04-22 19:48 | 48.77848 | 19.57300 | 22424 ft | 292 kts | 99° |
| 2026-04-22 19:48 | 48.77312 | 19.60272 | 22057 ft | 292 kts | 99° |
| 2026-04-22 19:48 | 48.76778 | 19.63233 | 21698 ft | 291 kts | 99° |
| 2026-04-22 19:48 | 48.76242 | 19.66187 | 21360 ft | 290 kts | 99° |
| 2026-04-22 19:49 | 48.75704 | 19.69130 | 21013 ft | 290 kts | 99° |
| 2026-04-22 19:49 | 48.75164 | 19.72070 | 20664 ft | 289 kts | 99° |
| 2026-04-22 19:49 | 48.74626 | 19.75004 | 20311 ft | 289 kts | 99° |
| 2026-04-22 19:49 | 48.74091 | 19.77928 | 19963 ft | 288 kts | 99° |
| 2026-04-22 19:50 | 48.73556 | 19.80850 | 19616 ft | 288 kts | 99° |
| 2026-04-22 19:50 | 48.73017 | 19.83784 | 19264 ft | 289 kts | 99° |
| 2026-04-22 19:50 | 48.72479 | 19.86707 | 18914 ft | 288 kts | 99° |
| 2026-04-22 19:50 | 48.71940 | 19.89634 | 18561 ft | 289 kts | 100° |
| 2026-04-22 19:51 | 48.71400 | 19.92575 | 18174 ft | 290 kts | 100° |
| 2026-04-22 19:51 | 48.70858 | 19.95512 | 17778 ft | 290 kts | 100° |
| 2026-04-22 19:51 | 48.70310 | 19.98470 | 17354 ft | 293 kts | 101° |
| 2026-04-22 19:51 | 48.69757 | 20.01439 | 16978 ft | 293 kts | 101° |
| 2026-04-22 19:52 | 48.69205 | 20.04407 | 16618 ft | 293 kts | 101° |
| 2026-04-22 19:52 | 48.68651 | 20.07373 | 16261 ft | 293 kts | 101° |
| 2026-04-22 19:52 | 48.68095 | 20.10345 | 15902 ft | 294 kts | 101° |
| 2026-04-22 19:52 | 48.67539 | 20.13318 | 15549 ft | 293 kts | 101° |
| 2026-04-22 19:53 | 48.66983 | 20.16286 | 15197 ft | 293 kts | 101° |
| 2026-04-22 19:53 | 48.66429 | 20.19247 | 14840 ft | 292 kts | 101° |
| 2026-04-22 19:53 | 48.66062 | 20.21208 | 14604 ft | 292 kts | 102° |
| 2026-04-22 19:53 | 48.65327 | 20.25124 | 14130 ft | 292 kts | 102° |
| 2026-04-22 19:54 | 48.64772 | 20.28077 | 13750 ft | 292 kts | 102° |
| 2026-04-22 19:54 | 48.64206 | 20.31068 | 13380 ft | 291 kts | 102° |
| 2026-04-22 19:54 | 48.63657 | 20.33969 | 13028 ft | 290 kts | 102° |
| 2026-04-22 19:54 | 48.63096 | 20.36933 | 12667 ft | 289 kts | 102° |
| 2026-04-22 19:55 | 48.62551 | 20.39813 | 12308 ft | 289 kts | 102° |
| 2026-04-22 19:55 | 48.61998 | 20.42733 | 11956 ft | 288 kts | 102° |
| 2026-04-22 19:55 | 48.61447 | 20.45642 | 11604 ft | 288 kts | 103° |
| 2026-04-22 19:55 | 48.60896 | 20.48552 | 11238 ft | 288 kts | 103° |
| 2026-04-22 19:56 | 48.60342 | 20.51462 | 10891 ft | 288 kts | 103° |
| 2026-04-22 19:56 | 48.59785 | 20.54371 | 10527 ft | 288 kts | 103° |
| 2026-04-22 19:56 | 48.59231 | 20.57271 | 10170 ft | 288 kts | 103° |
| 2026-04-22 19:56 | 48.58677 | 20.60171 | 9987 ft | 287 kts | 103° |
| 2026-04-22 19:57 | 48.58120 | 20.63083 | 9922 ft | 291 kts | 103° |
| 2026-04-22 19:57 | 48.57556 | 20.66019 | 9370 ft | 291 kts | 103° |
| 2026-04-22 19:57 | 48.56989 | 20.68953 | 8843 ft | 291 kts | 103° |
| 2026-04-22 19:57 | 48.56424 | 20.71875 | 8345 ft | 288 kts | 103° |
| 2026-04-22 19:58 | 48.55865 | 20.74774 | 7970 ft | 287 kts | 103° |
| 2026-04-22 19:58 | 48.55308 | 20.77665 | 7618 ft | 286 kts | 103° |
| 2026-04-22 19:58 | 48.54753 | 20.80546 | 7257 ft | 286 kts | 103° |
| 2026-04-22 19:58 | 48.54194 | 20.83424 | 6942 ft | 285 kts | 103° |
| 2026-04-22 19:59 | 48.53638 | 20.86285 | 6598 ft | 284 kts | 103° |
| 2026-04-22 20:00 | 48.50361 | 21.03014 | 5013 ft | 260 kts | 102° |
| 2026-04-22 20:00 | 48.49883 | 21.05553 | 4893 ft | 251 kts | 100° |
| 2026-04-22 20:01 | 48.49447 | 21.08041 | 4677 ft | 239 kts | 99° |
| 2026-04-22 20:01 | 48.49040 | 21.10424 | 4414 ft | 230 kts | 99° |
| 2026-04-22 20:01 | 48.48855 | 21.12754 | 4072 ft | 216 kts | 80° |
| 2026-04-22 20:01 | 48.49139 | 21.14854 | 3944 ft | 196 kts | 63° |
| 2026-04-22 20:02 | 48.49753 | 21.16592 | 3823 ft | 178 kts | 48° |
| 2026-04-22 20:02 | 48.50527 | 21.17853 | 3655 ft | 151 kts | 34° |
| 2026-04-22 20:02 | 48.51352 | 21.18690 | 3504 ft | 138 kts | 22° |
| 2026-04-22 20:02 | 48.52232 | 21.19207 | 3360 ft | 134 kts | 11° |
| 2026-04-22 20:03 | 48.53142 | 21.19526 | 3191 ft | 134 kts | 10° |
| 2026-04-22 20:03 | 48.54054 | 21.19844 | 3007 ft | 134 kts | 10° |
| 2026-04-22 20:03 | 48.54962 | 21.20160 | 2830 ft | 134 kts | 10° |
| 2026-04-22 20:03 | 48.55868 | 21.20476 | 2650 ft | 133 kts | 11° |
| 2026-04-22 20:04 | 48.56466 | 21.20684 | 2528 ft | 134 kts | 11° |
| 2026-04-22 20:04 | 48.57372 | 21.20999 | 2344 ft | 133 kts | 11° |
| 2026-04-22 20:04 | 48.58275 | 21.21314 | 2160 ft | 134 kts | 11° |
| 2026-04-22 20:04 | 48.59179 | 21.21629 | 1979 ft | 133 kts | 11° |
| 2026-04-22 20:05 | 48.60078 | 21.21943 | 1789 ft | 133 kts | 11° |
| 2026-04-22 20:05 | 48.60980 | 21.22265 | 1582 ft | 133 kts | 11° |
| 2026-04-22 20:05 | 48.61888 | 21.22577 | 1376 ft | 135 kts | 12° |
| 2026-04-22 20:05 | 48.62806 | 21.22897 | 1212 ft | 136 kts | 12° |
| 2026-04-22 20:06 | 48.63732 | 21.23223 | 1044 ft | 137 kts | 12° |
| 2026-04-22 20:06 | 48.64656 | 21.23543 | 852 ft | 136 kts | 11° |
| 2026-04-22 20:06 | 48.65542 | 21.23860 | 760 ft | 116 kts | 12° |
| 2026-04-22 20:06 | 48.66161 | 21.24066 | 758 ft | 66 kts | 12° |
| 2026-04-22 20:07 | 48.66452 | 21.24159 | 757 ft | 29 kts | 14° |
| 2026-04-22 20:07 | 48.66656 | 21.24245 | 760 ft | 32 kts | 13° |
| 2026-04-22 20:07 | 48.66878 | 21.24313 | 761 ft | 33 kts | 11° |
| 2026-04-22 20:07 | 48.67100 | 21.24389 | 760 ft | 29 kts | 14° |
| 2026-04-22 20:08 | 48.67220 | 21.24406 | 756 ft | 13 kts | 316° |
| 2026-04-22 20:08 | 48.67249 | 21.24277 | 753 ft | 10 kts | 284° |
| 2026-04-22 20:08 | 48.67239 | 21.24178 | 752 ft | 12 kts | 215° |
| 2026-04-22 20:08 | 48.67172 | 21.24137 | 755 ft | 5 kts | 223° |
| 2026-04-22 20:09 | 48.67174 | 21.24077 | 756 ft | 8 kts | 285° |
| 2026-04-22 20:09 | 48.67191 | 21.23980 | 754 ft | 11 kts | 284° |
| 2026-04-22 20:09 | 48.67210 | 21.23869 | 755 ft | 6 kts | 287° |
| 2026-04-22 20:09 | 48.67232 | 21.23840 | 752 ft | 3 kts | 340° |
| 2026-04-22 20:10 | 48.67257 | 21.23846 | 755 ft | 3 kts | 12° |
| 2026-04-22 20:10 | 48.67268 | 21.23849 | 755 ft | 2 kts | 13° |
| 2026-04-22 20:10 | 48.67269 | 21.23849 | 756 ft | 0 kts | 13° |
| 2026-04-22 20:13 | 48.67268 | 21.23849 | 756 ft | 0 kts | 13° |